createdAt,value
2019-03-23T00:01:20.234Z,28.67
2019-03-23T00:03:50.564Z,32.50
2019-03-23T00:06:30.416Z,29.20
2019-03-23T00:08:52.875Z,33.60
2019-03-23T00:11:23.391Z,30.30
2019-03-23T00:13:53.831Z,30.63
2019-03-23T00:16:24.112Z,29.87
2019-03-23T00:18:54.362Z,31.33
2019-03-23T00:21:24.744Z,29.63
2019-03-23T00:23:55.027Z,31.83
2019-03-23T00:26:25.426Z,31.03
2019-03-23T00:28:55.803Z,33.27
2019-03-23T00:31:26.175Z,30.43
2019-03-23T00:33:56.538Z,32.20
2019-03-23T00:36:26.855Z,33.20
2019-03-23T00:38:57.133Z,32.93
2019-03-23T00:41:27.446Z,30.17
2019-03-23T00:43:57.795Z,31.13
2019-03-23T00:46:28.154Z,31.33
2019-03-23T00:48:58.541Z,29.63
2019-03-23T00:51:28.849Z,28.93
2019-03-23T00:53:59.195Z,29.40
2019-03-23T00:56:29.576Z,30.13
2019-03-23T00:58:59.840Z,32.27
2019-03-23T01:01:30.155Z,30.50
2019-03-23T01:04:03.440Z,30.17
2019-03-23T01:06:33.894Z,28.40
2019-03-23T01:09:06.411Z,29.90
2019-03-23T01:11:36.714Z,30.63
2019-03-23T01:14:06.975Z,34.90
2019-03-23T01:16:38.386Z,31.53
2019-03-23T01:19:08.643Z,28.97
2019-03-23T01:21:38.946Z,27.97
2019-03-23T01:24:09.298Z,29.87
2019-03-23T01:26:39.595Z,30.10
2019-03-23T01:29:09.979Z,28.67
2019-03-23T01:31:40.323Z,29.40
2019-03-23T01:34:10.741Z,30.13
2019-03-23T01:36:41.183Z,29.40
2019-03-23T01:39:11.550Z,30.07
2019-03-23T01:41:41.948Z,26.67
2019-03-23T01:44:12.239Z,26.90
2019-03-23T01:46:42.523Z,28.83
2019-03-23T01:49:12.785Z,26.53
2019-03-23T01:51:43.068Z,27.10
2019-03-23T01:54:13.376Z,26.80
2019-03-23T01:56:43.685Z,26.90
2019-03-23T01:59:13.965Z,26.70
2019-03-23T02:01:44.242Z,29.03
2019-03-23T02:04:14.768Z,28.03
2019-03-23T02:06:45.080Z,27.37
2019-03-23T02:09:15.341Z,26.87
2019-03-23T02:11:45.644Z,27.87
2019-03-23T02:14:16.305Z,25.47
2019-03-23T02:16:46.636Z,29.27
2019-03-23T02:19:16.931Z,25.90
2019-03-23T02:21:47.332Z,27.13
2019-03-23T02:24:17.774Z,24.43
2019-03-23T02:26:48.199Z,25.40
2019-03-23T02:29:18.516Z,26.63
2019-03-23T02:31:48.783Z,27.90
2019-03-23T02:34:19.174Z,27.23
2019-03-23T02:36:49.509Z,25.83
2019-03-23T02:39:19.849Z,25.40
2019-03-23T02:41:50.371Z,30.10
2019-03-23T02:44:20.685Z,25.33
2019-03-23T02:46:51.040Z,26.57
2019-03-23T02:49:21.329Z,25.33
2019-03-23T02:51:51.626Z,23.77
2019-03-23T02:54:22.131Z,26.17
2019-03-23T02:56:52.542Z,24.37
2019-03-23T02:59:22.830Z,25.03
2019-03-23T03:01:53.069Z,25.20
2019-03-23T03:04:23.425Z,25.27
2019-03-23T03:06:53.741Z,26.07
2019-03-23T03:09:24.135Z,24.53
2019-03-23T03:11:56.175Z,25.20
2019-03-23T03:14:26.554Z,25.07
2019-03-23T03:16:56.936Z,24.43
2019-03-23T03:19:27.337Z,24.57
2019-03-23T03:21:57.753Z,24.07
2019-03-23T03:24:29.381Z,23.27
2019-03-23T03:26:59.761Z,25.73
2019-03-23T03:29:30.215Z,23.33
2019-03-23T03:32:00.611Z,24.37
2019-03-23T03:34:32.593Z,22.90
2019-03-23T03:37:03.000Z,23.63
2019-03-23T03:39:33.258Z,23.87
2019-03-23T03:42:04.372Z,23.90
2019-03-23T03:44:34.804Z,22.87
2019-03-23T03:47:05.172Z,24.00
2019-03-23T03:49:35.453Z,23.27
2019-03-23T03:52:05.853Z,23.23
2019-03-23T03:54:36.209Z,22.37
2019-03-23T03:57:06.528Z,22.37
2019-03-23T03:59:36.885Z,22.50
2019-03-23T04:02:07.266Z,21.93
2019-03-23T04:04:37.736Z,23.50
2019-03-23T04:07:08.104Z,21.13
2019-03-23T04:09:40.431Z,22.20
2019-03-23T04:12:10.426Z,21.57
2019-03-23T04:14:40.696Z,21.53
2019-03-23T04:17:11.102Z,22.43
2019-03-23T04:19:42.664Z,19.47
2019-03-23T04:22:12.956Z,20.73
2019-03-23T04:24:43.254Z,20.57
2019-03-23T04:27:13.669Z,21.33
2019-03-23T04:29:44.549Z,21.27
2019-03-23T04:32:14.875Z,21.13
2019-03-23T04:34:45.181Z,20.67
2019-03-23T04:37:15.422Z,21.87
2019-03-23T04:39:45.726Z,20.10
2019-03-23T04:42:16.123Z,22.93
2019-03-23T04:44:46.581Z,20.33
2019-03-23T04:47:16.869Z,20.27
2019-03-23T04:49:47.133Z,19.67
2019-03-23T04:52:17.453Z,20.53
2019-03-23T04:54:47.789Z,19.37
2019-03-23T04:57:18.230Z,19.37
2019-03-23T04:59:48.581Z,21.23
2019-03-23T05:02:18.973Z,19.60
2019-03-23T05:04:49.292Z,21.13
2019-03-23T05:07:20.225Z,19.13
2019-03-23T05:09:50.544Z,21.13
2019-03-23T05:12:20.992Z,21.30
2019-03-23T05:14:51.460Z,19.27
2019-03-23T05:17:21.903Z,19.63
2019-03-23T05:19:52.296Z,19.23
2019-03-23T05:22:22.646Z,18.67
2019-03-23T05:24:53.062Z,20.17
2019-03-23T05:27:23.456Z,19.33
2019-03-23T05:29:53.881Z,19.97
2019-03-23T05:32:24.260Z,18.83
2019-03-23T05:34:54.580Z,18.10
2019-03-23T05:37:24.970Z,20.37
2019-03-23T05:39:55.376Z,19.30
2019-03-23T05:42:25.712Z,22.77
2019-03-23T05:44:56.060Z,18.43
2019-03-23T05:47:26.448Z,20.67
2019-03-23T05:49:56.807Z,19.80
2019-03-23T05:52:27.153Z,29.43
2019-03-23T05:54:57.674Z,20.53
2019-03-23T05:57:29.532Z,19.57
2019-03-23T05:59:59.888Z,22.60
2019-03-23T06:02:30.284Z,25.83
2019-03-23T06:05:00.644Z,20.00
2019-03-23T06:07:31.041Z,25.33
2019-03-23T06:10:03.501Z,19.43
2019-03-23T06:12:33.846Z,19.93
2019-03-23T06:15:04.958Z,27.70
2019-03-23T06:17:35.284Z,25.80
2019-03-23T06:20:06.020Z,25.83
2019-03-23T06:22:36.300Z,19.70
2019-03-23T06:25:06.756Z,22.03
2019-03-23T06:27:37.135Z,23.17
2019-03-23T06:30:07.951Z,26.87
2019-03-23T06:32:38.298Z,21.83
2019-03-23T06:35:08.741Z,22.77
2019-03-23T06:37:39.020Z,23.40
2019-03-23T06:40:09.590Z,29.10
2019-03-23T06:42:40.206Z,18.90
2019-03-23T06:45:11.032Z,31.27
2019-03-23T06:47:41.501Z,21.40
2019-03-23T06:50:12.724Z,22.53
2019-03-23T06:52:42.980Z,28.47
2019-03-23T06:55:13.393Z,31.57
2019-03-23T06:57:43.798Z,25.90
2019-03-23T07:00:14.223Z,33.13
2019-03-23T07:02:44.596Z,21.77
2019-03-23T07:05:14.988Z,22.43
2019-03-23T07:07:45.330Z,20.93
2019-03-23T07:10:15.952Z,32.63
2019-03-23T07:12:46.229Z,28.53
2019-03-23T07:15:20.323Z,32.57
2019-03-23T07:17:48.567Z,22.93
2019-03-23T07:20:18.947Z,32.40
2019-03-23T07:22:49.542Z,24.77
2019-03-23T07:25:19.899Z,21.57
2019-03-23T07:27:50.286Z,24.17
2019-03-23T07:30:20.808Z,33.43
2019-03-23T07:32:51.094Z,23.20
2019-03-23T07:35:21.406Z,28.37
2019-03-23T07:37:51.791Z,26.33
2019-03-23T07:40:22.475Z,28.97
2019-03-23T07:42:52.732Z,28.50
2019-03-23T07:45:23.154Z,25.13
2019-03-23T07:47:53.441Z,27.87
2019-03-23T07:50:23.967Z,27.73
2019-03-23T07:52:54.318Z,24.63
2019-03-23T07:55:24.612Z,26.47
2019-03-23T07:57:54.925Z,28.50
2019-03-23T08:00:25.265Z,27.73
2019-03-23T08:02:55.646Z,29.40
2019-03-23T08:05:27.291Z,30.87
2019-03-23T08:07:57.667Z,30.90
2019-03-23T08:10:28.857Z,31.23
2019-03-23T08:12:59.344Z,25.10
2019-03-23T08:15:29.918Z,26.40
2019-03-23T08:18:00.483Z,34.57
2019-03-23T08:20:31.060Z,25.23
2019-03-23T08:23:01.432Z,30.77
2019-03-23T08:25:31.779Z,32.90
2019-03-23T08:28:02.524Z,26.43
2019-03-23T08:30:32.995Z,31.70
2019-03-23T08:33:04.158Z,27.40
2019-03-23T08:35:34.563Z,31.60
2019-03-23T08:38:05.028Z,25.93
2019-03-23T08:40:36.020Z,32.23
2019-03-23T08:43:06.703Z,32.80
2019-03-23T08:45:37.391Z,28.67
2019-03-23T08:48:07.729Z,31.43
2019-03-23T08:50:38.086Z,26.83
2019-03-23T08:53:08.741Z,28.73
2019-03-23T08:55:39.191Z,27.40
2019-03-23T08:58:09.577Z,31.33
2019-03-23T09:00:39.847Z,30.87
2019-03-23T09:03:10.299Z,29.13
2019-03-23T09:05:40.649Z,25.23
2019-03-23T09:08:10.999Z,28.87
2019-03-23T09:10:41.318Z,27.47
2019-03-23T09:13:11.591Z,32.67
2019-03-23T09:15:42.171Z,27.00
2019-03-23T09:18:12.557Z,27.50
2019-03-23T09:20:43.065Z,29.33
2019-03-23T09:23:13.348Z,31.20
2019-03-23T09:25:45.612Z,29.50
2019-03-23T09:28:15.627Z,30.10
2019-03-23T09:30:46.426Z,27.53
2019-03-23T09:33:17.738Z,26.97
2019-03-23T09:35:48.123Z,25.80
2019-03-23T09:38:18.463Z,31.93
2019-03-23T09:40:49.006Z,32.27
2019-03-23T09:43:19.329Z,27.40
2019-03-23T09:45:50.088Z,25.93
2019-03-23T09:48:20.663Z,28.97
2019-03-23T09:50:51.236Z,26.53
2019-03-23T09:53:21.652Z,26.07
2019-03-23T09:55:52.178Z,31.60
2019-03-23T09:58:22.533Z,28.87
2019-03-23T10:00:52.765Z,25.07
2019-03-23T10:03:23.383Z,24.70
2019-03-23T10:05:53.773Z,26.30
2019-03-23T10:08:24.177Z,30.20
2019-03-23T10:10:54.578Z,28.27
2019-03-23T10:13:27.534Z,26.20
2019-03-23T10:15:58.180Z,31.40
2019-03-23T10:18:28.497Z,27.43
2019-03-23T10:20:59.758Z,26.20
2019-03-23T10:23:30.051Z,28.47
2019-03-23T10:26:00.358Z,25.87
2019-03-23T10:28:32.330Z,31.97
2019-03-23T10:31:02.727Z,27.03
2019-03-23T10:33:33.035Z,30.30
2019-03-23T10:36:03.478Z,25.80
2019-03-23T10:38:33.800Z,24.77
2019-03-23T10:41:04.899Z,25.90
2019-03-23T10:43:35.167Z,28.23
2019-03-23T10:46:05.507Z,30.80
2019-03-23T10:48:36.841Z,26.00
2019-03-23T10:51:07.219Z,25.53
2019-03-23T10:53:37.452Z,24.40
2019-03-23T10:56:07.746Z,29.93
2019-03-23T10:58:38.102Z,28.07
2019-03-23T11:01:08.394Z,26.13
2019-03-23T11:03:38.685Z,26.70
2019-03-23T11:06:08.990Z,25.07
2019-03-23T11:08:39.290Z,24.43
2019-03-23T11:11:09.567Z,25.43
2019-03-23T11:13:39.951Z,25.63
2019-03-23T11:16:10.238Z,27.73
2019-03-23T11:18:40.563Z,25.80
2019-03-23T11:21:10.935Z,23.70
2019-03-23T11:23:41.326Z,29.93
2019-03-23T11:26:11.671Z,23.23
2019-03-23T11:28:42.004Z,25.97
2019-03-23T11:31:12.241Z,23.47
2019-03-23T11:33:42.530Z,27.00
2019-03-23T11:36:12.899Z,26.43
2019-03-23T11:38:43.211Z,25.57
2019-03-23T11:41:13.584Z,26.83
2019-03-23T11:43:44.004Z,24.57
2019-03-23T11:46:16.819Z,28.53
2019-03-23T11:48:46.289Z,26.53
2019-03-23T11:51:16.578Z,25.30
2019-03-23T11:53:46.915Z,25.90
2019-03-23T11:56:17.232Z,26.10
2019-03-23T11:58:47.550Z,24.50
2019-03-23T12:01:17.883Z,24.20
2019-03-23T12:03:48.268Z,23.87
2019-03-23T12:06:19.567Z,24.50
2019-03-23T12:08:49.953Z,23.97
2019-03-23T12:11:20.340Z,24.80
2019-03-23T12:13:50.583Z,22.90
2019-03-23T12:16:20.965Z,23.37
2019-03-23T12:18:51.228Z,23.30
2019-03-23T12:21:21.607Z,19.93
2019-03-23T12:23:51.858Z,21.43
2019-03-23T12:26:22.140Z,20.77
2019-03-23T12:28:54.832Z,20.10
2019-03-23T12:31:25.251Z,20.90
2019-03-23T12:33:55.733Z,21.53
2019-03-23T12:36:26.118Z,21.53
2019-03-23T12:38:58.856Z,20.43
2019-03-23T12:41:29.201Z,20.30
2019-03-23T12:43:59.452Z,19.97
2019-03-23T12:46:29.801Z,18.13
2019-03-23T12:49:00.260Z,18.40
2019-03-23T12:51:30.687Z,17.33
2019-03-23T12:54:01.043Z,17.07
2019-03-23T12:56:31.391Z,16.47
2019-03-23T12:59:02.721Z,13.40
2019-03-23T13:01:33.096Z,14.70
2019-03-23T13:04:04.268Z,13.27
2019-03-23T13:06:34.617Z,11.90
2019-03-23T13:09:06.245Z,12.67
2019-03-23T13:11:36.593Z,12.60
2019-03-23T13:14:07.041Z,10.60
2019-03-23T13:16:37.344Z,9.73
2019-03-23T13:19:07.679Z,10.80
2019-03-23T13:21:37.949Z,10.23
2019-03-23T13:24:08.441Z,10.40
2019-03-23T13:26:39.891Z,10.53
2019-03-23T13:29:10.281Z,8.80
2019-03-23T13:31:40.621Z,8.77
2019-03-23T13:34:10.909Z,9.03
2019-03-23T13:36:41.240Z,8.10
2019-03-23T13:39:11.561Z,8.40
2019-03-23T13:41:48.006Z,7.07
2019-03-23T13:44:18.363Z,8.13
2019-03-23T13:46:48.716Z,7.03
2019-03-23T13:49:19.194Z,5.43
2019-03-23T13:51:49.573Z,4.93
2019-03-23T13:54:19.931Z,6.63
2019-03-23T13:56:50.358Z,6.13
2019-03-23T13:59:20.706Z,5.13
2019-03-23T14:01:51.021Z,4.80
2019-03-23T14:04:21.550Z,4.73
2019-03-23T14:06:51.921Z,4.90
2019-03-23T14:09:22.219Z,4.40
2019-03-23T14:11:55.135Z,4.10
2019-03-23T14:14:24.611Z,4.43
2019-03-23T14:16:54.959Z,3.83
2019-03-23T14:19:25.467Z,3.30
2019-03-23T14:21:55.798Z,3.67
2019-03-23T14:24:26.224Z,3.17
2019-03-23T14:26:57.960Z,3.03
2019-03-23T14:29:28.212Z,2.90
2019-03-23T14:31:58.693Z,3.47
2019-03-23T14:34:29.123Z,2.83
2019-03-23T14:36:59.398Z,3.10
2019-03-23T14:39:31.195Z,2.77
2019-03-23T14:42:05.017Z,2.37
2019-03-23T14:44:33.678Z,2.97
2019-03-23T14:47:04.201Z,2.90
2019-03-23T14:49:34.440Z,2.70
2019-03-23T14:52:04.745Z,2.47
2019-03-23T14:54:35.018Z,2.70
2019-03-23T14:57:05.364Z,2.40
2019-03-23T14:59:35.876Z,2.60
2019-03-23T15:02:06.237Z,2.43
2019-03-23T15:04:36.481Z,2.63
2019-03-23T15:07:07.034Z,2.70
2019-03-23T15:09:37.406Z,1.93
2019-03-23T15:12:14.779Z,2.77
2019-03-23T15:14:42.590Z,2.67
2019-03-23T15:17:12.866Z,2.37
2019-03-23T15:19:43.224Z,2.37
2019-03-23T15:22:14.513Z,2.33
2019-03-23T15:24:44.888Z,2.13
2019-03-23T15:27:15.220Z,2.33
2019-03-23T15:29:45.449Z,2.50
2019-03-23T15:32:15.965Z,1.70
2019-03-23T15:34:46.596Z,3.10
2019-03-23T15:37:17.255Z,1.80
2019-03-23T15:39:47.968Z,2.23
2019-03-23T15:42:24.663Z,1.93
2019-03-23T15:44:50.746Z,2.27
2019-03-23T15:47:21.055Z,2.77
2019-03-23T15:49:51.490Z,1.90
2019-03-23T15:52:21.920Z,1.97
2019-03-23T15:54:52.330Z,2.07
2019-03-23T15:57:22.608Z,2.10
2019-03-23T15:59:53.033Z,2.17
2019-03-23T16:02:26.571Z,1.70
2019-03-23T16:04:57.100Z,2.27
2019-03-23T16:07:29.692Z,1.80
2019-03-23T16:09:59.358Z,1.87
2019-03-23T16:12:34.700Z,2.20
2019-03-23T16:15:01.583Z,2.57
2019-03-23T16:17:31.939Z,1.60
2019-03-23T16:20:02.488Z,2.33
2019-03-23T16:22:33.305Z,1.93
2019-03-23T16:25:05.049Z,2.03
2019-03-23T16:27:35.702Z,2.13
2019-03-23T16:30:08.231Z,2.03
2019-03-23T16:32:38.677Z,3.13
2019-03-23T16:35:09.052Z,2.30
2019-03-23T16:37:39.474Z,2.60
2019-03-23T16:40:11.022Z,2.17
2019-03-23T16:42:45.622Z,2.50
2019-03-23T16:45:14.262Z,2.37
2019-03-23T16:51:07.965Z,2.20
2019-03-23T16:53:41.289Z,2.30
2019-03-23T16:56:12.601Z,2.72
2019-03-23T16:58:45.386Z,2.53
2019-03-23T17:01:15.847Z,1.87
2019-03-23T17:03:46.247Z,2.30
2019-03-23T17:06:16.521Z,2.50
2019-03-23T17:08:47.057Z,2.10
2019-03-23T17:11:17.312Z,1.90
2019-03-23T17:13:47.532Z,2.13
2019-03-23T17:16:17.904Z,3.00
2019-03-23T17:18:48.225Z,2.13
2019-03-23T17:21:18.590Z,2.40
2019-03-23T17:23:48.829Z,1.93
2019-03-23T17:26:19.159Z,2.27
2019-03-23T17:28:49.451Z,1.80
2019-03-23T17:31:19.861Z,2.20
2019-03-23T17:33:50.153Z,2.63
2019-03-23T17:36:20.554Z,2.10
2019-03-23T17:38:50.924Z,2.07
2019-03-23T17:41:21.261Z,1.90
2019-03-23T17:43:51.692Z,2.57
2019-03-23T17:46:22.167Z,2.73
2019-03-23T17:48:52.403Z,2.57
2019-03-23T17:51:22.714Z,2.27
2019-03-23T17:53:58.438Z,2.10
2019-03-23T17:56:25.323Z,2.27
2019-03-23T17:58:55.613Z,2.83
2019-03-23T18:01:26.065Z,2.20
2019-03-23T18:03:59.163Z,2.17
2019-03-23T18:06:29.405Z,3.53
2019-03-23T18:08:59.746Z,2.27
2019-03-23T18:11:30.392Z,2.57
2019-03-23T18:14:00.765Z,1.97
2019-03-23T18:16:31.163Z,2.50
2019-03-23T18:19:01.453Z,2.27
2019-03-23T18:21:31.799Z,2.43
2019-03-23T18:24:03.709Z,2.50
2019-03-23T18:26:34.039Z,2.40
2019-03-23T18:29:04.921Z,2.53
2019-03-23T18:31:35.535Z,2.67
2019-03-23T18:34:05.882Z,2.20
2019-03-23T18:36:36.427Z,3.13
2019-03-23T18:39:07.034Z,3.20
2019-03-23T18:41:37.767Z,3.20
2019-03-23T18:44:16.244Z,2.30
2019-03-23T18:46:41.189Z,2.40
2019-03-23T18:49:11.639Z,3.30
2019-03-23T18:51:41.920Z,3.40
2019-03-23T18:54:12.438Z,4.47
2019-03-23T18:56:42.830Z,4.17
2019-03-23T18:59:13.110Z,3.77
2019-03-23T19:01:44.943Z,4.33
2019-03-23T19:04:15.258Z,4.10
2019-03-23T19:06:45.500Z,3.47
2019-03-23T19:09:16.139Z,3.67
2019-03-23T19:11:46.643Z,4.60
2019-03-23T19:14:20.028Z,3.23
2019-03-23T19:16:50.427Z,3.47
2019-03-23T19:19:20.924Z,3.60
2019-03-23T19:21:51.613Z,3.47
2019-03-23T19:24:21.971Z,3.57
2019-03-23T19:26:52.648Z,2.83
2019-03-23T19:29:23.285Z,4.03
2019-03-23T19:31:53.754Z,3.37
2019-03-23T19:34:27.142Z,3.63
2019-03-23T19:36:59.060Z,3.17
2019-03-23T19:39:29.516Z,3.40
2019-03-23T19:42:00.150Z,3.40
2019-03-23T19:44:30.580Z,3.03
2019-03-23T19:47:01.308Z,3.30
2019-03-23T19:49:32.984Z,3.33
2019-03-23T19:52:29.979Z,2.93
2019-03-23T19:55:00.359Z,3.40
2019-03-23T19:57:30.917Z,3.03
2019-03-23T20:00:01.475Z,3.37
2019-03-23T20:02:32.329Z,3.03
2019-03-23T20:05:02.707Z,3.00
2019-03-23T20:07:34.353Z,2.90
2019-03-23T20:10:05.466Z,2.85
2019-03-23T20:12:37.033Z,3.17
2019-03-23T20:15:09.220Z,3.20
2019-03-23T20:17:40.076Z,3.50
2019-03-23T20:29:29.983Z,2.40
2019-03-23T20:32:00.567Z,2.20
2019-03-23T20:40:39.125Z,2.33
2019-03-23T20:43:09.743Z,2.90
2019-03-23T20:45:42.031Z,3.23
2019-03-23T20:48:12.554Z,3.03
2019-03-23T20:50:44.139Z,3.07
2019-03-23T20:53:15.925Z,2.30
2019-03-23T20:55:46.285Z,2.43
2019-03-23T20:58:16.911Z,3.33
2019-03-23T21:00:48.840Z,2.60
2019-03-23T21:03:19.429Z,2.10
2019-03-23T21:05:51.947Z,2.80
2019-03-23T21:08:22.525Z,2.80
2019-03-23T21:10:54.450Z,3.77
2019-03-23T21:13:24.910Z,2.50
2019-03-23T21:15:55.134Z,2.57
2019-03-23T21:18:25.538Z,2.73
2019-03-23T21:20:59.362Z,2.70
2019-03-23T21:23:30.002Z,2.80
2019-03-23T21:26:00.757Z,2.50
2019-03-23T21:28:32.449Z,1.93
2019-03-23T21:31:03.205Z,3.03
2019-03-23T21:33:38.907Z,2.73
2019-03-23T21:36:05.733Z,2.83
2019-03-23T21:38:36.084Z,2.47
2019-03-23T21:41:06.629Z,3.10
2019-03-23T21:43:38.072Z,2.77
2019-03-23T21:46:08.558Z,2.37
2019-03-23T21:48:39.040Z,2.67
2019-03-23T21:51:09.449Z,2.67
2019-03-23T21:53:39.973Z,2.80
2019-03-23T21:56:10.554Z,3.57
2019-03-23T21:58:40.999Z,3.03
2019-03-23T22:01:11.581Z,2.63
2019-03-23T22:03:41.936Z,2.60
2019-03-23T22:06:12.313Z,2.43
2019-03-23T22:08:42.879Z,2.83
2019-03-23T22:11:13.428Z,2.43
2019-03-23T22:13:43.983Z,3.07
2019-03-23T22:16:14.405Z,2.70
2019-03-23T22:18:44.840Z,2.70
2019-03-23T22:21:15.378Z,3.30
2019-03-23T22:23:46.010Z,2.70
2019-03-23T22:26:16.443Z,2.23
2019-03-23T22:28:47.939Z,2.80
2019-03-23T22:31:18.679Z,2.17
2019-03-23T22:33:49.467Z,2.60
2019-03-23T22:36:20.722Z,2.70
2019-03-23T22:38:51.624Z,3.00
2019-03-23T22:41:21.889Z,2.73
2019-03-23T22:43:52.357Z,2.63
2019-03-23T22:46:22.671Z,2.70
2019-03-23T22:48:53.682Z,3.40
2019-03-23T22:51:24.119Z,3.15
2019-03-23T22:53:55.489Z,2.63
2019-03-23T22:56:27.216Z,2.73
2019-03-23T22:58:57.650Z,3.27
2019-03-23T23:01:27.980Z,2.53
2019-03-23T23:03:58.279Z,3.60
2019-03-23T23:06:28.651Z,2.67
2019-03-23T23:08:59.026Z,3.13
2019-03-23T23:11:29.485Z,2.90
2019-03-23T23:13:59.853Z,2.80
2019-03-23T23:16:30.269Z,2.67
2019-03-23T23:19:00.641Z,2.80
2019-03-23T23:21:31.012Z,2.57
2019-03-23T23:24:02.510Z,2.20
2019-03-23T23:26:32.951Z,2.50
2019-03-23T23:29:04.151Z,3.07
2019-03-23T23:31:34.511Z,2.47
2019-03-23T23:34:04.781Z,2.60
2019-03-23T23:36:35.136Z,2.30
2019-03-23T23:39:06.822Z,3.13
2019-03-23T23:41:37.128Z,2.53
2019-03-23T23:44:07.508Z,3.07
2019-03-23T23:46:37.888Z,2.70
2019-03-23T23:49:08.304Z,2.67
2019-03-23T23:51:49.623Z,2.30
2019-03-23T23:54:11.617Z,3.40
2019-03-23T23:56:42.957Z,2.93
2019-03-23T23:59:14.009Z,2.50
